createdAt,value
2022-12-27T00:00:21.577Z,101223.88
2022-12-27T00:02:48.054Z,101221.75
2022-12-27T00:05:15.539Z,101225.28
2022-12-27T00:07:42.370Z,101241.03
2022-12-27T00:10:09.112Z,101236.66
2022-12-27T00:12:35.436Z,101242.41
2022-12-27T00:15:01.953Z,101243.16
2022-12-27T00:17:29.176Z,101256.06
2022-12-27T00:19:55.503Z,101249.44
2022-12-27T00:22:21.861Z,101252.31
2022-12-27T00:24:48.198Z,101260.19
2022-12-27T00:27:14.540Z,101264.47
2022-12-27T00:29:40.868Z,101262.97
2022-12-27T00:32:07.224Z,101262.22
2022-12-27T00:34:33.547Z,101267.25
2022-12-27T00:36:59.880Z,101256.38
2022-12-27T00:39:26.600Z,101266.38
2022-12-27T00:41:52.924Z,101262.00
2022-12-27T00:44:19.263Z,101265.53
2022-12-27T00:46:45.600Z,101267.97
2022-12-27T00:49:11.941Z,101273.72
2022-12-27T00:51:38.484Z,101275.25
2022-12-27T00:54:04.931Z,101275.25
2022-12-27T00:56:32.789Z,101276.72
2022-12-27T00:58:59.809Z,101281.00
2022-12-27T01:01:26.672Z,101288.22
2022-12-27T01:03:53.120Z,101288.84
2022-12-27T01:06:22.598Z,101295.25
2022-12-27T01:08:48.927Z,101305.16
2022-12-27T01:11:15.617Z,101305.03
2022-12-27T01:13:41.949Z,101310.69
2022-12-27T01:16:11.517Z,101318.44
2022-12-27T01:18:37.882Z,101314.84
2022-12-27T01:21:05.207Z,101324.84
2022-12-27T01:23:31.884Z,101322.84
2022-12-27T01:26:01.503Z,101325.69
2022-12-27T01:28:27.832Z,101330.84
2022-12-27T01:30:54.167Z,101328.03
2022-12-27T01:33:20.516Z,101328.81
2022-12-27T01:35:46.850Z,101324.53
2022-12-27T01:38:13.192Z,101328.91
2022-12-27T01:40:39.526Z,101334.00
2022-12-27T01:43:05.858Z,101332.53
2022-12-27T01:45:33.054Z,101334.00
2022-12-27T01:48:13.074Z,101336.88
2022-12-27T01:50:40.833Z,101339.66
2022-12-27T01:53:17.336Z,101346.81
2022-12-27T01:55:53.650Z,101336.78
2022-12-27T01:58:23.275Z,101349.69
2022-12-27T02:00:49.758Z,101346.81
2022-12-27T02:03:19.062Z,101346.06
2022-12-27T02:05:45.763Z,101343.94
2022-12-27T02:08:16.231Z,101348.94
2022-12-27T02:10:42.575Z,101348.28
2022-12-27T02:13:09.044Z,101359.03
2022-12-27T02:15:35.838Z,101353.28
2022-12-27T02:18:02.183Z,101356.28
2022-12-27T02:20:32.256Z,101357.03
2022-12-27T02:23:26.276Z,101359.16
2022-12-27T02:26:11.239Z,101364.28
2022-12-27T02:28:54.381Z,101369.19
2022-12-27T02:31:31.209Z,101365.53
2022-12-27T02:33:57.532Z,101378.56
2022-12-27T02:36:24.524Z,101372.81
2022-12-27T02:55:05.532Z,101384.19
2022-12-27T02:57:42.446Z,101386.31
2022-12-27T03:00:28.832Z,101389.94
2022-12-27T03:03:23.251Z,101394.28
2022-12-27T03:06:21.856Z,101397.19
2022-12-27T03:08:53.974Z,101395.81
2022-12-27T03:11:39.092Z,101407.31
2022-12-27T03:14:25.853Z,101408.06
2022-12-27T03:16:56.207Z,101406.56
2022-12-27T03:19:49.379Z,101409.34
2022-12-27T03:22:34.258Z,101414.31
2022-12-27T03:25:19.057Z,101418.59
2022-12-27T03:27:45.405Z,101418.59
2022-12-27T03:30:30.315Z,101421.34
2022-12-27T03:33:15.306Z,101422.84
2022-12-27T03:35:42.195Z,101429.34
2022-12-27T03:38:08.531Z,101428.59
2022-12-27T03:40:34.826Z,101434.34
2022-12-27T03:43:11.764Z,101427.09
2022-12-27T03:46:04.007Z,101428.59
2022-12-27T03:48:30.713Z,101440.84
2022-12-27T03:50:57.457Z,101431.56
2022-12-27T03:53:25.722Z,101433.09
2022-12-27T03:55:52.106Z,101435.97
2022-12-27T03:58:18.435Z,101437.44
2022-12-27T04:00:44.770Z,101447.56
2022-12-27T04:03:11.158Z,101442.56
2022-12-27T04:05:37.533Z,101445.56
2022-12-27T04:08:22.591Z,101437.66
2022-12-27T04:11:07.528Z,101444.81
2022-12-27T04:13:53.057Z,101440.56
2022-12-27T04:16:38.158Z,101438.41
2022-12-27T04:19:23.186Z,101439.81
2022-12-27T04:22:08.085Z,101452.06
2022-12-27T04:24:52.954Z,101440.56
2022-12-27T04:27:38.035Z,101451.31
2022-12-27T04:30:23.140Z,101436.94
2022-12-27T04:33:08.037Z,101438.41
2022-12-27T04:35:34.391Z,101429.03
2022-12-27T04:38:00.728Z,101431.91
2022-12-27T04:40:45.928Z,101434.78
2022-12-27T04:43:30.859Z,101436.31
2022-12-27T04:46:16.053Z,101442.81
2022-12-27T04:49:00.801Z,101447.81
2022-12-27T04:51:45.599Z,101439.19
2022-12-27T04:54:38.816Z,101444.81
2022-12-27T04:57:05.186Z,101446.31
2022-12-27T04:59:50.242Z,101458.53
2022-12-27T05:02:16.824Z,101453.56
2022-12-27T05:04:43.189Z,101447.81
2022-12-27T05:07:28.904Z,101445.03
2022-12-27T05:10:14.084Z,101455.03
2022-12-27T05:12:58.922Z,101446.53
2022-12-27T05:15:25.230Z,101448.00
2022-12-27T05:17:51.556Z,101446.66
2022-12-27T05:20:17.873Z,101443.03
2022-12-27T05:23:02.981Z,101449.53
2022-12-27T05:25:35.115Z,101453.78
2022-12-27T05:28:01.698Z,101462.41
2022-12-27T05:30:28.012Z,101462.28
2022-12-27T05:32:54.750Z,101462.28
2022-12-27T05:35:21.055Z,101467.28
2022-12-27T05:37:51.536Z,101462.28
2022-12-27T05:40:23.979Z,101463.78
2022-12-27T05:42:50.360Z,101468.91
2022-12-27T05:45:16.746Z,101471.03
2022-12-27T05:47:43.080Z,101473.16
2022-12-27T05:50:09.530Z,101478.28
2022-12-27T05:52:40.797Z,101481.06
2022-12-27T05:55:07.660Z,101479.53
2022-12-27T05:57:34.087Z,101478.19
2022-12-27T06:00:00.461Z,101481.69
2022-12-27T06:02:26.918Z,101485.28
2022-12-27T06:04:53.358Z,101483.94
2022-12-27T06:07:19.682Z,101486.81
2022-12-27T06:09:46.009Z,101494.03
2022-12-27T06:12:12.383Z,101489.78
2022-12-27T06:14:41.257Z,101491.28
2022-12-27T06:17:07.613Z,101491.28
2022-12-27T06:19:33.952Z,101489.91
2022-12-27T06:22:00.371Z,101491.41
2022-12-27T06:24:26.699Z,101500.03
2022-12-27T06:26:53.048Z,101503.53
2022-12-27T06:29:19.394Z,101497.03
2022-12-27T06:31:46.004Z,101499.91
2022-12-27T06:34:12.368Z,101502.78
2022-12-27T06:36:38.693Z,101507.06
2022-12-27T06:39:05.074Z,101507.06
2022-12-27T06:41:31.403Z,101508.53
2022-12-27T06:43:57.735Z,101517.06
2022-12-27T06:46:27.086Z,101520.03
2022-12-27T06:48:53.467Z,101510.06
2022-12-27T06:51:19.901Z,101515.81
2022-12-27T06:53:46.666Z,101515.81
2022-12-27T06:56:13.834Z,101520.78
2022-12-27T06:58:40.176Z,101525.81
2022-12-27T07:01:07.300Z,101522.94
2022-12-27T07:03:33.664Z,101531.56
2022-12-27T07:06:03.489Z,101535.81
2022-12-27T07:08:29.809Z,101531.56
2022-12-27T07:11:03.265Z,101533.06
2022-12-27T07:13:29.602Z,101527.31
2022-12-27T07:15:55.972Z,101543.81
2022-12-27T07:18:22.315Z,101540.31
2022-12-27T07:20:48.655Z,101543.81
2022-12-27T07:23:19.256Z,101551.19
2022-12-27T07:25:46.134Z,101551.81
2022-12-27T07:28:12.577Z,101548.13
2022-12-27T07:30:42.071Z,101547.75
2022-12-27T07:33:08.506Z,101561.13
2022-12-27T07:35:34.839Z,101567.09
2022-12-27T07:38:01.190Z,101574.38
2022-12-27T07:40:27.523Z,101573.09
2022-12-27T07:42:53.863Z,101573.72
2022-12-27T07:45:20.183Z,101581.84
2022-12-27T07:47:46.509Z,101581.84
2022-12-27T07:50:12.867Z,101583.34
2022-12-27T07:52:39.203Z,101581.84
2022-12-27T07:55:05.711Z,101588.34
2022-12-27T07:57:32.064Z,101585.47
2022-12-27T07:59:58.407Z,101590.47
2022-12-27T08:02:24.859Z,101594.09
2022-12-27T08:04:51.433Z,101604.88
2022-12-27T08:07:18.504Z,101589.75
2022-12-27T08:09:45.262Z,101591.84
2022-12-27T08:12:13.389Z,101591.09
2022-12-27T08:14:39.951Z,101586.88
2022-12-27T08:17:08.464Z,101592.63
2022-12-27T08:19:34.896Z,101593.34
2022-12-27T08:22:01.206Z,101597.84
2022-12-27T08:24:27.681Z,101601.56
2022-12-27T08:26:54.084Z,101614.59
2022-12-27T08:29:20.458Z,101596.56
2022-12-27T08:31:46.777Z,101597.22
2022-12-27T08:34:13.111Z,101610.84
2022-12-27T08:36:55.193Z,101616.59
2022-12-27T08:39:21.812Z,101609.34
2022-12-27T08:41:48.163Z,101615.09
2022-12-27T08:44:14.503Z,101621.59
2022-12-27T08:46:41.019Z,101628.88
2022-12-27T08:49:07.430Z,101626.72
2022-12-27T08:51:40.899Z,101613.81
2022-12-27T08:54:07.682Z,101628.22
2022-12-27T08:56:34.011Z,101630.34
2022-12-27T08:59:00.384Z,101629.59
2022-12-27T09:01:26.871Z,101631.00
2022-12-27T09:03:53.288Z,101626.59
2022-12-27T09:06:20.419Z,101629.31
2022-12-27T09:08:47.407Z,101632.75
2022-12-27T09:11:14.665Z,101641.75
2022-12-27T09:13:41.236Z,101636.75
2022-12-27T09:16:08.292Z,101657.16
2022-12-27T09:18:34.642Z,101650.38
2022-12-27T09:21:04.481Z,101644.78
2022-12-27T09:23:31.137Z,101641.31
2022-12-27T09:25:57.454Z,101635.19
2022-12-27T09:28:23.795Z,101633.34
2022-12-27T09:30:50.163Z,101631.91
2022-12-27T09:33:16.530Z,101648.03
2022-12-27T09:35:42.987Z,101647.44
2022-12-27T09:38:09.312Z,101635.84
2022-12-27T09:40:35.631Z,101631.97
2022-12-27T09:43:19.464Z,101640.97
2022-12-27T09:45:50.951Z,101651.47
2022-12-27T09:48:21.398Z,101654.72
2022-12-27T09:50:55.426Z,101658.47
2022-12-27T09:53:22.262Z,101659.09
2022-12-27T09:55:49.746Z,101655.56
2022-12-27T09:58:22.563Z,101655.69
2022-12-27T10:00:51.796Z,101657.22
2022-12-27T10:03:19.895Z,101660.97
2022-12-27T10:05:46.259Z,101653.19
2022-12-27T10:08:21.836Z,101649.59
2022-12-27T10:11:08.238Z,101653.94
2022-12-27T10:13:38.691Z,101663.31
2022-12-27T10:16:04.977Z,101666.19
2022-12-27T10:18:38.579Z,101666.31
2022-12-27T10:21:23.086Z,101666.44
2022-12-27T10:23:53.036Z,101662.22
2022-12-27T10:26:19.374Z,101669.44
2022-12-27T10:28:46.447Z,101660.94
2022-12-27T10:31:16.846Z,101659.66
2022-12-27T10:33:43.617Z,101674.06
2022-12-27T10:36:11.475Z,101669.81
2022-12-27T10:38:37.835Z,101676.56
2022-12-27T10:41:07.507Z,101687.72
2022-12-27T10:43:36.509Z,101687.19
2022-12-27T10:46:20.770Z,101687.44
2022-12-27T10:51:45.856Z,101697.28
2022-12-27T10:54:13.185Z,101686.94
2022-12-27T10:56:41.372Z,101690.66
2022-12-27T10:59:13.513Z,101684.91
2022-12-27T11:01:39.937Z,101687.66
2022-12-27T11:04:20.745Z,101688.41
2022-12-27T11:06:48.779Z,101691.00
2022-12-27T11:09:31.014Z,101692.84
2022-12-27T11:12:16.264Z,101693.34
2022-12-27T11:14:55.230Z,101699.34
2022-12-27T11:17:23.539Z,101703.63
2022-12-27T11:19:50.586Z,101699.38
2022-12-27T11:22:22.848Z,101706.66
2022-12-27T11:24:50.179Z,101703.22
2022-12-27T11:27:26.031Z,101713.34
2022-12-27T11:29:52.942Z,101703.31
2022-12-27T11:32:19.649Z,101714.94
2022-12-27T11:34:46.638Z,101708.19
2022-12-27T11:37:15.509Z,101715.66
2022-12-27T11:39:45.377Z,101715.91
2022-12-27T11:42:32.441Z,101724.66
2022-12-27T11:45:17.522Z,101725.41
2022-12-27T11:47:52.119Z,101740.53
2022-12-27T11:50:27.378Z,101744.19
2022-12-27T11:53:05.856Z,101741.94
2022-12-27T11:55:51.230Z,101741.94
2022-12-27T11:58:23.362Z,101729.56
2022-12-27T12:00:53.568Z,101734.66
2022-12-27T12:03:31.718Z,101739.06
2022-12-27T12:06:16.645Z,101740.41
2022-12-27T12:08:59.767Z,101736.91
2022-12-27T12:11:29.121Z,101731.16
2022-12-27T12:14:04.655Z,101734.78
2022-12-27T12:16:34.034Z,101739.19
2022-12-27T12:19:03.261Z,101740.03
2022-12-27T12:21:40.524Z,101735.03
2022-12-27T12:24:25.503Z,101736.41
2022-12-27T12:26:56.114Z,101737.91
2022-12-27T12:29:25.661Z,101727.91
2022-12-27T12:32:10.876Z,101733.66
2022-12-27T12:34:42.023Z,101732.41
2022-12-27T12:37:14.065Z,101736.06
2022-12-27T12:39:50.974Z,101746.78
2022-12-27T12:42:21.088Z,101744.31
2022-12-27T12:45:00.033Z,101746.66
2022-12-27T12:47:30.811Z,101739.03
2022-12-27T12:50:00.048Z,101750.91
2022-12-27T12:52:29.271Z,101744.16
2022-12-27T12:55:13.288Z,101744.31
2022-12-27T12:58:01.292Z,101748.16
2022-12-27T13:00:36.475Z,101746.88
2022-12-27T13:03:25.809Z,101754.66
2022-12-27T13:05:53.689Z,101755.91
2022-12-27T13:08:49.263Z,101756.78
2022-12-27T13:11:18.587Z,101761.88
2022-12-27T13:14:01.059Z,101761.28
2022-12-27T13:16:30.895Z,101756.25
2022-12-27T13:19:30.201Z,101768.75
2022-12-27T13:22:07.246Z,101773.16
2022-12-27T13:24:45.863Z,101761.63
2022-12-27T13:27:41.326Z,101763.13
2022-12-27T13:30:13.363Z,101756.63
2022-12-27T13:32:58.626Z,101758.88
2022-12-27T13:35:28.483Z,101752.25
2022-12-27T13:38:03.668Z,101755.47
2022-12-27T13:40:48.924Z,101758.34
2022-12-27T13:43:34.639Z,101757.72
2022-12-27T13:46:25.682Z,101754.97
2022-12-27T13:48:56.127Z,101756.31
2022-12-27T13:51:45.801Z,101752.72
2022-12-27T13:54:24.448Z,101766.97
2022-12-27T13:56:55.129Z,101760.28
2022-12-27T13:59:26.940Z,101767.19
2022-12-27T14:01:58.514Z,101774.22
2022-12-27T14:04:43.897Z,101778.50
2022-12-27T14:07:19.302Z,101775.28
2022-12-27T14:09:55.504Z,101789.56
2022-12-27T14:12:40.638Z,101786.78
2022-12-27T14:15:07.201Z,101788.81
2022-12-27T14:17:39.504Z,101795.31
2022-12-27T14:20:08.515Z,101801.56
2022-12-27T14:22:40.649Z,101790.91
2022-12-27T14:25:29.883Z,101793.56
2022-12-27T14:28:03.630Z,101805.66
2022-12-27T14:30:46.317Z,101801.88
2022-12-27T14:33:31.180Z,101805.91
2022-12-27T14:36:21.227Z,101808.66
2022-12-27T14:39:01.289Z,101805.66
2022-12-27T14:41:46.395Z,101812.81
2022-12-27T14:44:20.895Z,101818.44
2022-12-27T14:46:47.152Z,101818.19
2022-12-27T14:49:32.390Z,101803.91
2022-12-27T14:52:17.350Z,101810.91
2022-12-27T14:54:44.277Z,101816.47
2022-12-27T14:57:34.028Z,101817.94
2022-12-27T15:00:14.435Z,101820.69
2022-12-27T15:02:44.653Z,101820.56
2022-12-27T15:05:13.348Z,101823.34
2022-12-27T15:07:59.851Z,101833.50
2022-12-27T15:10:44.545Z,101834.84
2022-12-27T15:13:14.857Z,101838.50
2022-12-27T15:15:41.143Z,101832.75
2022-12-27T15:18:15.539Z,101839.13
2022-12-27T15:20:47.872Z,101837.72
2022-12-27T15:23:14.107Z,101842.00
2022-12-27T15:25:40.341Z,101843.38
2022-12-27T15:28:10.130Z,101853.38
2022-12-27T15:30:39.661Z,101851.13
2022-12-27T15:33:13.735Z,101845.38
2022-12-27T15:35:58.834Z,101835.88
2022-12-27T15:38:49.643Z,101835.88
2022-12-27T15:41:31.289Z,101837.25
2022-12-27T15:44:00.887Z,101831.50
2022-12-27T15:46:44.769Z,101824.22
2022-12-27T15:49:11.022Z,101819.84
2022-12-27T15:51:50.924Z,101824.22
2022-12-27T15:54:20.119Z,101824.22
2022-12-27T15:56:52.127Z,101818.25
2022-12-27T15:59:30.866Z,101824.75
2022-12-27T16:02:15.865Z,101828.50
2022-12-27T16:05:14.699Z,101829.97
2022-12-27T16:07:45.416Z,101829.97
2022-12-27T16:10:27.060Z,101831.50
2022-12-27T16:12:53.958Z,101824.34
2022-12-27T16:15:35.543Z,101826.50
2022-12-27T16:18:02.093Z,101828.75
2022-12-27T16:20:28.513Z,101833.13
2022-12-27T16:22:55.432Z,101840.25
2022-12-27T16:25:30.138Z,101840.25
2022-12-27T16:28:01.167Z,101843.25
2022-12-27T16:30:57.229Z,101844.63
2022-12-27T16:33:26.390Z,101841.75
2022-12-27T16:36:03.039Z,101846.00
2022-12-27T16:38:29.590Z,101830.88
2022-12-27T16:40:57.212Z,101841.75
2022-12-27T16:43:24.132Z,101831.75
2022-12-27T16:45:54.140Z,101831.75
2022-12-27T16:48:23.864Z,101828.22
2022-12-27T16:51:11.934Z,101836.13
2022-12-27T16:53:48.356Z,101834.63
2022-12-27T16:56:24.131Z,101840.38
2022-12-27T16:58:50.472Z,101837.50
2022-12-27T17:01:25.925Z,101849.75
2022-12-27T17:03:52.839Z,101848.25
2022-12-27T17:09:10.501Z,101839.75
2022-12-27T17:11:38.997Z,101836.84
2022-12-27T17:14:15.424Z,101837.72
2022-12-27T17:16:43.193Z,101830.00
2022-12-27T17:19:29.114Z,101830.00
2022-12-27T17:21:56.697Z,101832.09
2022-12-27T17:24:23.251Z,101832.88
2022-12-27T17:26:58.106Z,101844.38
2022-12-27T17:29:29.825Z,101842.25
2022-12-27T17:32:08.295Z,101837.09
2022-12-27T17:34:44.574Z,101843.47
2022-12-27T17:37:14.069Z,101854.25
2022-12-27T17:39:59.294Z,101843.47
2022-12-27T17:42:47.214Z,101839.13
2022-12-27T17:45:33.935Z,101834.84
2022-12-27T17:48:06.295Z,101839.13
2022-12-27T17:50:32.685Z,101845.50
2022-12-27T17:53:21.380Z,101847.50
2022-12-27T17:56:17.437Z,101843.13
2022-12-27T17:58:43.759Z,101851.13
2022-12-27T18:01:10.138Z,101845.28
2022-12-27T18:03:39.136Z,101833.75
2022-12-27T18:06:05.481Z,101844.50
2022-12-27T18:08:33.965Z,101844.50
2022-12-27T18:11:00.603Z,101848.03
2022-12-27T18:13:27.561Z,101847.78
2022-12-27T18:15:53.887Z,101841.75
2022-12-27T18:18:24.221Z,101844.00
2022-12-27T18:20:57.402Z,101842.88
2022-12-27T18:23:23.721Z,101832.63
2022-12-27T18:25:51.575Z,101840.50
2022-12-27T18:28:28.699Z,101841.63
2022-12-27T18:30:57.570Z,101837.25
2022-12-27T18:33:42.956Z,101834.25
2022-12-27T18:36:09.774Z,101819.97
2022-12-27T18:38:40.088Z,101819.97
2022-12-27T18:41:07.174Z,101821.47
2022-12-27T18:43:33.495Z,101819.38
2022-12-27T18:45:59.871Z,101821.47
2022-12-27T18:48:27.049Z,101824.34
2022-12-27T18:50:53.449Z,101820.72
2022-12-27T18:53:23.575Z,101824.22
2022-12-27T18:56:05.967Z,101825.00
2022-12-27T18:58:32.542Z,101815.63
2022-12-27T19:01:17.762Z,101828.03
2022-12-27T19:03:44.175Z,101826.88
2022-12-27T19:06:11.657Z,101813.06
2022-12-27T19:08:38.744Z,101809.78
2022-12-27T19:11:05.499Z,101819.78
2022-12-27T19:13:45.999Z,101815.91
2022-12-27T19:16:22.944Z,101822.44
2022-12-27T19:18:54.400Z,101811.13
2022-12-27T19:21:31.913Z,101803.97
2022-12-27T19:23:58.249Z,101802.09
2022-12-27T19:26:25.337Z,101798.44
2022-12-27T19:29:00.810Z,101789.09
2022-12-27T19:31:27.171Z,101780.84
2022-12-27T19:33:54.675Z,101781.84
2022-12-27T19:36:33.861Z,101783.72
2022-12-27T19:39:00.217Z,101794.47
2022-12-27T19:41:26.566Z,101793.59
2022-12-27T19:43:52.901Z,101800.72
2022-12-27T19:46:19.699Z,101801.97
2022-12-27T19:49:07.701Z,101796.22
2022-12-27T19:51:32.645Z,101797.72
2022-12-27T19:53:58.995Z,101804.97
2022-12-27T19:56:25.317Z,101799.34
2022-12-27T19:58:51.640Z,101799.47
2022-12-27T20:01:18.080Z,101796.59
2022-12-27T20:03:44.619Z,101794.47
2022-12-27T20:06:20.849Z,101785.22
2022-12-27T20:08:51.639Z,101789.44
2022-12-27T20:11:18.947Z,101783.69
2022-12-27T20:13:45.284Z,101772.19
2022-12-27T20:16:12.277Z,101778.59
2022-12-27T20:18:41.876Z,101783.56
2022-12-27T20:21:11.486Z,101769.97
2022-12-27T20:23:37.856Z,101774.94
2022-12-27T20:26:04.173Z,101769.19
2022-12-27T20:28:30.572Z,101763.44
2022-12-27T20:30:56.921Z,101769.19
2022-12-27T20:33:23.270Z,101772.06
2022-12-27T20:35:58.532Z,101763.44
2022-12-27T20:38:27.961Z,101765.56
2022-12-27T20:40:54.363Z,101770.69
2022-12-27T20:43:20.801Z,101766.44
2022-12-27T20:45:47.174Z,101769.19
2022-12-27T20:48:13.576Z,101759.19
2022-12-27T20:50:39.933Z,101769.97
2022-12-27T20:53:06.354Z,101760.56
2022-12-27T20:55:34.229Z,101749.03
2022-12-27T20:58:00.849Z,101760.56
2022-12-27T21:00:27.330Z,101757.69
2022-12-27T21:02:53.821Z,101760.69
2022-12-27T21:05:20.374Z,101756.44
2022-12-27T21:07:46.706Z,101750.69
2022-12-27T21:10:13.088Z,101747.94
2022-12-27T21:12:39.483Z,101746.53
2022-12-27T21:15:08.159Z,101735.16
2022-12-27T21:17:34.583Z,101740.16
2022-12-27T21:20:00.908Z,101735.16
2022-12-27T21:22:27.287Z,101731.53
2022-12-27T21:24:53.635Z,101727.91
2022-12-27T21:27:20.063Z,101733.66
2022-12-27T21:29:52.361Z,101726.41
2022-12-27T21:32:21.395Z,101732.91
2022-12-27T21:34:50.616Z,101719.16
2022-12-27T21:37:16.934Z,101727.91
2022-12-27T21:39:43.270Z,101723.66
2022-12-27T21:42:10.860Z,101726.53
2022-12-27T21:44:38.726Z,101727.91
2022-12-27T21:47:05.525Z,101729.28
2022-12-27T21:49:31.896Z,101737.91
2022-12-27T21:51:58.222Z,101732.16
2022-12-27T21:54:24.545Z,101725.66
2022-12-27T21:56:50.872Z,101731.41
2022-12-27T21:59:17.202Z,101724.16
2022-12-27T22:01:51.755Z,101714.88
2022-12-27T22:04:19.790Z,101706.38
2022-12-27T22:06:47.420Z,101707.13
2022-12-27T22:09:14.220Z,101710.66
2022-12-27T22:11:40.588Z,101703.25
2022-12-27T22:14:06.965Z,101705.41
2022-12-27T22:16:34.194Z,101698.91
2022-12-27T22:19:00.542Z,101702.41
2022-12-27T22:21:27.864Z,101695.16
2022-12-27T22:23:54.583Z,101686.53
2022-12-27T22:26:24.785Z,101681.38
2022-12-27T22:28:51.119Z,101675.63
2022-12-27T22:31:18.244Z,101668.41
2022-12-27T22:33:47.199Z,101673.38
2022-12-27T22:36:14.394Z,101671.16
2022-12-27T22:38:40.876Z,101665.41
2022-12-27T22:41:13.991Z,101661.75
2022-12-27T22:43:40.518Z,101671.78
2022-12-27T22:46:07.543Z,101666.63
2022-12-27T22:48:34.005Z,101663.00
2022-12-27T22:51:05.472Z,101657.88
2022-12-27T22:53:31.796Z,101649.91
2022-12-27T22:55:58.123Z,101650.66
2022-12-27T22:58:26.085Z,101649.16
2022-12-27T23:00:52.410Z,101644.03
2022-12-27T23:03:18.741Z,101636.00
2022-12-27T23:05:45.092Z,101639.63
2022-12-27T23:08:11.469Z,101644.66
2022-12-27T23:10:38.300Z,101643.28
2022-12-27T23:13:04.621Z,101636.00
2022-12-27T23:15:30.966Z,101636.66
2022-12-27T23:17:57.308Z,101634.41
2022-12-27T23:20:23.643Z,101640.91
2022-12-27T23:22:49.963Z,101635.91
2022-12-27T23:25:16.357Z,101628.66
2022-12-27T23:27:42.704Z,101627.03
2022-12-27T23:30:09.318Z,101618.41
2022-12-27T23:32:35.676Z,101614.78
2022-12-27T23:35:02.120Z,101622.78
2022-12-27T23:37:28.433Z,101617.16
2022-12-27T23:39:54.752Z,101615.63
2022-12-27T23:42:21.070Z,101612.66
2022-12-27T23:44:47.419Z,101611.91
2022-12-27T23:47:13.736Z,101605.28
2022-12-27T23:49:40.073Z,101608.16
2022-12-27T23:52:06.392Z,101605.94
2022-12-27T23:54:32.726Z,101602.16
2022-12-27T23:57:19.410Z,101590.66
2022-12-27T23:59:45.403Z,101596.41
